Time;durP1;ratioP1;P1;durP2;ratioP2;P2;SDS_P1;SDS_P2;PMS_P1;PMS_P2;Temp;Humidity;BMP_temperature;BMP_pressure;BME280_temperature;BME280_humidity;BME280_pressure;Samples;Min_cycle;Max_cycle;Signal;HPM_P1;HPM_P2
2023/09/25 00:02:06;;;;;;;;;;;21.30;50.00;;;;;;5092594;28;19924;-62
2023/09/25 00:04:34;;;;;;;;;;;21.30;49.90;;;;;;5092993;28;19931;-62
2023/09/25 00:07:02;;;;;;;;;;;21.30;49.90;;;;;;5093497;28;19949;-62
2023/09/25 00:09:29;;;;;;;;;;;21.30;49.90;;;;;;5093206;28;19923;-62
2023/09/25 00:11:56;;;;;;;;;;;21.30;49.90;;;;;;5106814;28;19942;-62
2023/09/25 00:14:23;;;;;;;;;;;21.30;49.80;;;;;;5090761;28;19923;-62
2023/09/25 00:16:49;;;;;;;;;;;21.30;49.80;;;;;;5081896;28;19924;-62
2023/09/25 00:19:16;;;;;;;;;;;21.30;49.80;;;;;;5092590;28;19981;-62
2023/09/25 00:21:45;;;;;;;;;;;21.30;49.80;;;;;;5092269;28;19923;-62
2023/09/25 00:24:11;;;;;;;;;;;21.30;49.80;;;;;;5092484;28;19938;-63
2023/09/25 00:26:38;;;;;;;;;;;21.30;50.40;;;;;;5088947;28;19981;-62
2023/09/25 00:29:05;;;;;;;;;;;21.30;49.80;;;;;;5092395;28;19954;-62
2023/09/25 00:31:32;;;;;;;;;;;21.30;49.70;;;;;;5082455;28;19934;-62
2023/09/25 00:33:58;;;;;;;;;;;21.30;49.80;;;;;;5089735;28;19924;-62
2023/09/25 00:36:25;;;;;;;;;;;21.30;49.80;;;;;;5085772;28;20026;-62
2023/09/25 00:38:54;;;;;;;;;;;21.30;49.70;;;;;;5092322;28;19923;-62
2023/09/25 00:41:20;;;;;;;;;;;21.30;49.70;;;;;;5091481;28;19930;-62
2023/09/25 00:43:47;;;;;;;;;;;21.30;49.70;;;;;;5086503;28;19973;-62
2023/09/25 00:46:14;;;;;;;;;;;21.30;49.60;;;;;;5083746;28;20311;-62
2023/09/25 00:48:42;;;;;;;;;;;21.20;49.60;;;;;;5091051;28;19932;-62
2023/09/25 00:51:09;;;;;;;;;;;21.20;49.50;;;;;;5084113;28;19924;-62
2023/09/25 00:53:36;;;;;;;;;;;21.20;49.40;;;;;;5098555;28;19924;-62
2023/09/25 00:56:04;;;;;;;;;;;21.20;49.50;;;;;;5096041;28;19924;-62
2023/09/25 00:58:31;;;;;;;;;;;21.20;49.50;;;;;;5091306;28;19951;-62
2023/09/25 01:00:58;;;;;;;;;;;21.20;49.50;;;;;;5068678;28;19931;-62
2023/09/25 01:03:25;;;;;;;;;;;21.20;49.50;;;;;;5094266;28;19932;-62
2023/09/25 01:05:51;;;;;;;;;;;21.20;49.50;;;;;;5089506;28;19942;-62
2023/09/25 01:08:18;;;;;;;;;;;21.20;49.50;;;;;;5093434;28;20365;-62
2023/09/25 01:10:46;;;;;;;;;;;21.20;49.50;;;;;;5092891;28;19924;-62
2023/09/25 01:13:15;;;;;;;;;;;21.20;49.40;;;;;;5092724;28;19927;-62
2023/09/25 01:15:41;;;;;;;;;;;21.20;49.40;;;;;;5095024;28;19932;-62
2023/09/25 01:18:08;;;;;;;;;;;21.20;49.40;;;;;;5111129;28;19935;-62
2023/09/25 01:20:35;;;;;;;;;;;21.20;49.30;;;;;;5095389;28;20018;-62
2023/09/25 01:23:04;;;;;;;;;;;21.20;49.20;;;;;;5096127;28;19932;-62
2023/09/25 01:25:31;;;;;;;;;;;21.20;49.20;;;;;;5095381;28;19931;-62
2023/09/25 01:27:58;;;;;;;;;;;21.20;49.20;;;;;;5095711;28;19924;-62
2023/09/25 01:30:24;;;;;;;;;;;21.20;49.20;;;;;;5094781;28;19928;-62
2023/09/25 01:32:52;;;;;;;;;;;21.20;49.10;;;;;;5091807;28;19934;-62
2023/09/25 01:35:19;;;;;;;;;;;21.20;49.10;;;;;;5093516;28;19924;-62
2023/09/25 01:37:46;;;;;;;;;;;21.20;49.00;;;;;;5095570;28;19924;-63
2023/09/25 01:40:17;;;;;;;;;;;21.10;48.90;;;;;;5095412;28;19930;-62
2023/09/25 01:42:44;;;;;;;;;;;21.10;48.90;;;;;;5095480;28;19924;-62
2023/09/25 01:45:11;;;;;;;;;;;21.10;48.90;;;;;;5111527;28;20400;-62
2023/09/25 01:47:39;;;;;;;;;;;21.10;48.80;;;;;;5093447;28;19931;-62
2023/09/25 01:50:08;;;;;;;;;;;21.10;48.80;;;;;;5091653;28;20015;-62
2023/09/25 01:52:35;;;;;;;;;;;21.10;48.80;;;;;;5094658;28;19924;-61
2023/09/25 01:55:03;;;;;;;;;;;21.10;48.70;;;;;;5113274;28;19989;-62
2023/09/25 01:57:31;;;;;;;;;;;21.10;48.80;;;;;;5112126;28;19927;-62
2023/09/25 01:59:58;;;;;;;;;;;21.10;48.70;;;;;;5094896;28;19950;-62
2023/09/25 02:02:25;;;;;;;;;;;21.10;48.70;;;;;;5111866;28;19927;-62
2023/09/25 02:04:52;;;;;;;;;;;21.10;48.70;;;;;;5102307;28;19936;-62
2023/09/25 02:07:20;;;;;;;;;;;21.10;48.70;;;;;;5094153;28;19924;-62
2023/09/25 02:09:47;;;;;;;;;;;21.10;48.70;;;;;;5094435;28;20366;-62
2023/09/25 02:12:14;;;;;;;;;;;21.10;48.60;;;;;;5094177;28;19931;-62
2023/09/25 02:14:42;;;;;;;;;;;21.10;48.60;;;;;;5098277;28;19935;-62
2023/09/25 02:17:09;;;;;;;;;;;21.10;48.60;;;;;;5090691;28;19924;-62
2023/09/25 02:19:36;;;;;;;;;;;21.10;48.60;;;;;;5094379;28;20378;-62
2023/09/25 02:22:06;;;;;;;;;;;21.10;48.60;;;;;;5086746;28;19927;-62
2023/09/25 02:24:33;;;;;;;;;;;21.10;48.60;;;;;;5086228;28;19927;-62
2023/09/25 02:27:00;;;;;;;;;;;21.10;48.50;;;;;;5094116;28;19969;-63
2023/09/25 02:29:27;;;;;;;;;;;21.10;48.50;;;;;;5092751;28;19931;-62
2023/09/25 02:31:55;;;;;;;;;;;21.00;48.40;;;;;;5093701;28;19923;-62
2023/09/25 02:34:22;;;;;;;;;;;21.00;48.40;;;;;;5111874;28;19927;-63
2023/09/25 02:36:48;;;;;;;;;;;21.00;48.30;;;;;;5094436;28;19924;-62
2023/09/25 02:39:15;;;;;;;;;;;21.00;48.40;;;;;;5093100;28;19924;-62
2023/09/25 02:41:42;;;;;;;;;;;21.00;48.30;;;;;;5094542;28;19935;-62
2023/09/25 02:44:09;;;;;;;;;;;21.00;48.30;;;;;;5094154;28;19931;-62
2023/09/25 02:46:35;;;;;;;;;;;21.00;48.30;;;;;;5112121;28;19939;-62
2023/09/25 02:49:04;;;;;;;;;;;21.00;48.30;;;;;;5112502;28;20020;-62
2023/09/25 02:51:31;;;;;;;;;;;21.00;48.30;;;;;;5085717;28;19967;-62
2023/09/25 02:53:58;;;;;;;;;;;21.00;48.30;;;;;;5091442;28;19984;-62
2023/09/25 02:56:25;;;;;;;;;;;21.00;48.30;;;;;;5110934;28;19930;-62
2023/09/25 02:58:51;;;;;;;;;;;21.00;48.30;;;;;;5094252;28;19924;-62
2023/09/25 03:01:18;;;;;;;;;;;21.00;48.20;;;;;;5069353;28;19932;-62
2023/09/25 03:03:45;;;;;;;;;;;21.00;48.30;;;;;;5093822;28;19945;-62
2023/09/25 03:06:13;;;;;;;;;;;21.00;48.30;;;;;;5093580;28;20292;-62
2023/09/25 03:08:40;;;;;;;;;;;20.90;48.20;;;;;;5093405;28;19931;-62
2023/09/25 03:11:07;;;;;;;;;;;20.90;48.20;;;;;;5083046;28;19923;-62
2023/09/25 03:13:33;;;;;;;;;;;20.90;48.20;;;;;;5091767;28;20310;-62
2023/09/25 03:16:00;;;;;;;;;;;20.90;48.20;;;;;;5093544;28;19985;-62
2023/09/25 03:18:27;;;;;;;;;;;20.90;48.10;;;;;;5092906;28;19924;-62
2023/09/25 03:20:54;;;;;;;;;;;20.90;48.10;;;;;;5093979;28;19928;-62
2023/09/25 03:23:22;;;;;;;;;;;20.90;48.10;;;;;;5092749;28;19928;-62
2023/09/25 03:25:49;;;;;;;;;;;20.90;48.10;;;;;;5093374;28;19927;-62
2023/09/25 03:28:15;;;;;;;;;;;20.90;48.00;;;;;;5092058;28;19933;-61
2023/09/25 03:30:42;;;;;;;;;;;20.90;48.10;;;;;;5104651;28;20019;-62
2023/09/25 03:33:09;;;;;;;;;;;20.90;48.10;;;;;;5085081;28;19985;-62
2023/09/25 03:35:37;;;;;;;;;;;20.90;48.10;;;;;;5111439;28;19934;-62
2023/09/25 03:38:04;;;;;;;;;;;20.90;48.10;;;;;;5111645;28;20342;-62
2023/09/25 03:40:32;;;;;;;;;;;20.90;48.10;;;;;;5092844;28;19924;-63
2023/09/25 03:42:59;;;;;;;;;;;20.90;48.10;;;;;;5093130;28;19931;-62
2023/09/25 03:45:26;;;;;;;;;;;20.90;48.10;;;;;;5086670;28;19932;-62
2023/09/25 03:47:53;;;;;;;;;;;20.90;48.10;;;;;;5093362;28;19920;-62
2023/09/25 03:50:19;;;;;;;;;;;20.90;48.10;;;;;;5092913;28;19939;-62
2023/09/25 03:52:46;;;;;;;;;;;20.90;48.10;;;;;;5105896;28;19919;-62
2023/09/25 03:55:13;;;;;;;;;;;20.90;48.10;;;;;;5092988;28;19924;-62
2023/09/25 03:57:41;;;;;;;;;;;20.90;48.10;;;;;;5092949;28;19926;-62
2023/09/25 04:00:08;;;;;;;;;;;20.90;48.00;;;;;;5088116;28;19924;-62
2023/09/25 04:02:35;;;;;;;;;;;20.90;48.00;;;;;;5098153;28;19985;-62
2023/09/25 04:05:03;;;;;;;;;;;20.90;48.00;;;;;;5092894;28;19928;-62
2023/09/25 04:07:29;;;;;;;;;;;20.90;48.00;;;;;;5110358;28;19919;-62
2023/09/25 04:09:56;;;;;;;;;;;20.90;48.00;;;;;;5091615;28;19923;-62
2023/09/25 04:12:23;;;;;;;;;;;20.90;48.00;;;;;;5092377;28;19924;-62
2023/09/25 04:14:53;;;;;;;;;;;20.90;48.00;;;;;;5110438;28;19950;-62
2023/09/25 04:17:20;;;;;;;;;;;20.90;48.00;;;;;;5099969;28;20018;-62
2023/09/25 04:19:48;;;;;;;;;;;20.90;48.00;;;;;;5091304;28;19930;-62
2023/09/25 04:22:14;;;;;;;;;;;20.90;48.00;;;;;;5094697;28;19927;-62
2023/09/25 04:24:41;;;;;;;;;;;20.90;48.00;;;;;;5096078;28;19919;-62
2023/09/25 04:27:09;;;;;;;;;;;20.90;48.00;;;;;;5096248;28;19924;-62
2023/09/25 04:29:38;;;;;;;;;;;20.90;48.00;;;;;;5096055;28;19930;-62
2023/09/25 04:32:06;;;;;;;;;;;20.90;47.90;;;;;;5089279;28;20030;-61
2023/09/25 04:34:35;;;;;;;;;;;20.90;47.90;;;;;;5091714;28;20400;-61
2023/09/25 04:37:02;;;;;;;;;;;20.90;47.90;;;;;;5096175;28;19923;-62
2023/09/25 04:39:32;;;;;;;;;;;20.90;47.90;;;;;;5095580;28;19923;-62
2023/09/25 04:41:59;;;;;;;;;;;20.90;47.90;;;;;;5114326;28;19924;-62
2023/09/25 04:44:26;;;;;;;;;;;20.90;47.90;;;;;;5113283;28;19927;-61
2023/09/25 04:46:53;;;;;;;;;;;20.90;47.80;;;;;;5097825;28;19948;-61
2023/09/25 04:49:21;;;;;;;;;;;20.80;47.80;;;;;;5106552;28;19924;-61
2023/09/25 04:51:48;;;;;;;;;;;20.90;47.80;;;;;;5096128;28;20022;-61
2023/09/25 04:54:15;;;;;;;;;;;20.80;47.70;;;;;;5094754;28;19927;-61
2023/09/25 04:56:42;;;;;;;;;;;20.80;47.80;;;;;;5113996;28;19992;-62
2023/09/25 04:59:09;;;;;;;;;;;20.80;47.80;;;;;;5095090;28;19924;-62
2023/09/25 05:01:35;;;;;;;;;;;20.80;47.80;;;;;;5084786;28;19934;-62
2023/09/25 05:04:02;;;;;;;;;;;20.80;47.70;;;;;;5113674;28;19923;-62
2023/09/25 05:06:30;;;;;;;;;;;20.80;47.80;;;;;;5111529;28;19935;-62
2023/09/25 05:08:57;;;;;;;;;;;20.80;47.80;;;;;;5095533;28;19931;-62
2023/09/25 05:11:24;;;;;;;;;;;20.90;47.90;;;;;;5095239;28;19928;-62
2023/09/25 05:13:51;;;;;;;;;;;20.80;47.80;;;;;;5113583;28;19924;-61
2023/09/25 05:16:18;;;;;;;;;;;20.80;47.70;;;;;;5091449;28;19983;-62
2023/09/25 05:18:44;;;;;;;;;;;20.80;47.70;;;;;;5094629;28;19924;-62
2023/09/25 05:21:11;;;;;;;;;;;20.90;47.80;;;;;;5093332;28;19924;-61
2023/09/25 05:23:39;;;;;;;;;;;20.80;47.70;;;;;;5094273;28;19919;-62
2023/09/25 05:26:06;;;;;;;;;;;20.80;47.70;;;;;;5112886;28;19927;-61
2023/09/25 05:28:33;;;;;;;;;;;20.80;47.70;;;;;;5094031;28;19920;-62
2023/09/25 05:31:00;;;;;;;;;;;20.80;47.80;;;;;;5094993;28;19931;-63
2023/09/25 05:33:27;;;;;;;;;;;20.80;47.80;;;;;;5093079;28;20224;-62
2023/09/25 05:35:54;;;;;;;;;;;20.80;47.90;;;;;;5112978;28;19923;-61
2023/09/25 05:38:21;;;;;;;;;;;20.80;47.90;;;;;;5111208;28;19924;-61
2023/09/25 05:40:49;;;;;;;;;;;20.80;48.00;;;;;;5112340;28;19931;-61
2023/09/25 05:43:16;;;;;;;;;;;20.80;48.10;;;;;;5093644;28;19935;-61
2023/09/25 05:45:43;;;;;;;;;;;20.80;48.10;;;;;;5099565;28;19935;-61
2023/09/25 05:48:10;;;;;;;;;;;20.80;48.10;;;;;;5094164;28;19924;-61
2023/09/25 05:50:37;;;;;;;;;;;20.80;48.10;;;;;;5112159;28;19931;-62
2023/09/25 05:53:04;;;;;;;;;;;20.90;48.20;;;;;;5091425;28;19924;-61
2023/09/25 05:55:31;;;;;;;;;;;20.80;48.20;;;;;;5092196;28;19970;-62
2023/09/25 05:57:59;;;;;;;;;;;20.90;48.20;;;;;;5093539;28;19932;-62
2023/09/25 06:00:26;;;;;;;;;;;20.90;48.30;;;;;;5106732;28;20038;-61
2023/09/25 06:02:53;;;;;;;;;;;20.90;48.30;;;;;;5091321;28;19931;-61
2023/09/25 06:05:20;;;;;;;;;;;20.90;48.30;;;;;;5092286;28;19934;-62
2023/09/25 06:07:47;;;;;;;;;;;20.90;48.30;;;;;;5092951;28;19980;-61
2023/09/25 06:10:15;;;;;;;;;;;20.90;48.30;;;;;;5092909;28;19931;-62
2023/09/25 06:12:43;;;;;;;;;;;20.90;48.90;;;;;;5110427;28;19966;-62
2023/09/25 06:15:12;;;;;;;;;;;20.90;48.40;;;;;;5092257;28;20460;-62
2023/09/25 06:17:39;;;;;;;;;;;20.90;48.30;;;;;;5090638;28;19980;-62
2023/09/25 06:20:14;;;;;;;;;;;20.90;48.40;;;;;;5091054;28;19928;-62
2023/09/25 06:22:43;;;;;;;;;;;20.90;48.40;;;;;;5102023;28;19931;-62
2023/09/25 06:25:11;;;;;;;;;;;20.90;48.30;;;;;;5090470;28;19934;-61
2023/09/25 06:27:39;;;;;;;;;;;20.90;48.40;;;;;;5089266;28;20261;-61
2023/09/25 06:30:09;;;;;;;;;;;20.90;48.40;;;;;;5090057;28;20036;-61
2023/09/25 06:32:37;;;;;;;;;;;20.90;48.40;;;;;;5087334;28;20026;-64
2023/09/25 06:35:05;;;;;;;;;;;20.90;48.40;;;;;;5090760;28;20295;-62
2023/09/25 06:37:32;;;;;;;;;;;20.90;48.50;;;;;;5090797;28;19947;-64
2023/09/25 06:39:58;;;;;;;;;;;20.90;48.50;;;;;;5093687;28;19931;-63
2023/09/25 06:42:25;;;;;;;;;;;20.90;48.60;;;;;;5091798;28;19935;-63
2023/09/25 06:44:52;;;;;;;;;;;20.90;48.60;;;;;;5093985;28;19984;-63
2023/09/25 06:47:19;;;;;;;;;;;20.90;48.70;;;;;;5091876;28;19930;-64
2023/09/25 06:49:47;;;;;;;;;;;20.90;48.70;;;;;;5093778;28;20446;-63
2023/09/25 06:52:13;;;;;;;;;;;20.90;48.70;;;;;;5089948;28;19924;-63
2023/09/25 06:54:40;;;;;;;;;;;20.90;48.70;;;;;;5094176;28;19970;-63
2023/09/25 06:57:07;;;;;;;;;;;21.00;48.80;;;;;;5104474;28;19923;-63
2023/09/25 06:59:34;;;;;;;;;;;21.00;48.80;;;;;;5088611;28;19923;-64
2023/09/25 07:02:01;;;;;;;;;;;21.00;48.90;;;;;;5091607;28;20030;-64
2023/09/25 07:04:28;;;;;;;;;;;21.00;48.90;;;;;;5092982;28;19934;-64
2023/09/25 07:06:56;;;;;;;;;;;21.00;48.90;;;;;;5091578;28;19966;-63
2023/09/25 07:09:22;;;;;;;;;;;21.00;48.90;;;;;;5088801;28;19927;-63
2023/09/25 07:11:50;;;;;;;;;;;21.00;48.90;;;;;;5109105;28;19924;-63
2023/09/25 07:14:17;;;;;;;;;;;21.00;48.90;;;;;;5088782;28;20003;-64
2023/09/25 07:16:43;;;;;;;;;;;21.10;49.00;;;;;;5105347;27;19928;-64
2023/09/25 07:19:10;;;;;;;;;;;21.00;49.00;;;;;;5090953;28;19928;-63
2023/09/25 07:21:38;;;;;;;;;;;21.00;49.00;;;;;;5070529;28;20016;-61
2023/09/25 07:24:07;;;;;;;;;;;21.10;49.00;;;;;;5088108;28;19939;-61
2023/09/25 07:26:34;;;;;;;;;;;21.10;49.00;;;;;;5086758;28;19988;-61
2023/09/25 07:29:01;;;;;;;;;;;21.10;49.10;;;;;;5099367;28;20034;-63
2023/09/25 07:31:28;;;;;;;;;;;21.10;49.10;;;;;;5083989;28;20023;-63
2023/09/25 07:33:57;;;;;;;;;;;21.10;49.10;;;;;;5088483;28;19977;-62
2023/09/25 07:36:24;;;;;;;;;;;21.10;49.10;;;;;;5087748;28;20014;-62
2023/09/25 07:38:52;;;;;;;;;;;21.10;49.20;;;;;;5103109;28;19936;-62
2023/09/25 07:41:20;;;;;;;;;;;21.10;49.20;;;;;;5081067;28;19931;-61
2023/09/25 07:43:48;;;;;;;;;;;21.10;49.20;;;;;;5087107;28;20033;-61
2023/09/25 07:46:17;;;;;;;;;;;21.10;49.20;;;;;;5089571;28;20277;-61
2023/09/25 07:48:44;;;;;;;;;;;21.20;49.30;;;;;;5087067;28;19931;-60
2023/09/25 07:51:12;;;;;;;;;;;21.20;49.30;;;;;;5088250;28;19946;-61
2023/09/25 07:53:39;;;;;;;;;;;21.20;49.40;;;;;;5093657;28;19973;-60
2023/09/25 07:56:06;;;;;;;;;;;21.20;49.30;;;;;;5089343;28;19931;-60
2023/09/25 07:58:38;;;;;;;;;;;21.20;49.40;;;;;;5086248;28;19931;-61
2023/09/25 08:01:08;;;;;;;;;;;21.20;49.40;;;;;;5110119;28;20292;-61
2023/09/25 08:03:37;;;;;;;;;;;21.20;49.40;;;;;;5101567;28;19924;-61
2023/09/25 08:06:05;;;;;;;;;;;21.20;49.50;;;;;;5088348;28;20040;-61
2023/09/25 08:08:32;;;;;;;;;;;21.20;49.40;;;;;;5096208;28;19924;-61
2023/09/25 08:10:59;;;;;;;;;;;21.20;49.50;;;;;;5100886;28;19924;-61
2023/09/25 08:13:25;;;;;;;;;;;21.20;49.50;;;;;;5089551;28;19923;-61
2023/09/25 08:15:54;;;;;;;;;;;21.20;49.50;;;;;;5107817;28;20254;-62
2023/09/25 08:18:20;;;;;;;;;;;21.30;49.50;;;;;;5088394;28;19977;-62
2023/09/25 08:20:47;;;;;;;;;;;21.30;49.50;;;;;;5087217;28;19930;-61
2023/09/25 08:23:14;;;;;;;;;;;21.30;49.50;;;;;;5091236;28;20331;-60
2023/09/25 08:25:41;;;;;;;;;;;21.30;49.60;;;;;;5081384;28;19924;-60
2023/09/25 08:28:07;;;;;;;;;;;21.30;49.60;;;;;;5095400;28;19924;-61
2023/09/25 08:30:34;;;;;;;;;;;21.30;49.60;;;;;;5106195;28;19930;-61
2023/09/25 08:33:03;;;;;;;;;;;21.30;49.60;;;;;;5109726;28;19971;-61
2023/09/25 08:35:29;;;;;;;;;;;21.30;49.60;;;;;;5087243;28;19932;-61
2023/09/25 08:37:56;;;;;;;;;;;21.30;49.60;;;;;;5095101;28;19931;-62
2023/09/25 08:40:23;;;;;;;;;;;21.30;49.70;;;;;;5089859;28;19931;-61
2023/09/25 08:42:51;;;;;;;;;;;21.30;49.70;;;;;;5089669;28;19930;-61
2023/09/25 08:45:17;;;;;;;;;;;21.30;49.70;;;;;;5089676;28;19924;-61
2023/09/25 08:47:45;;;;;;;;;;;21.30;49.70;;;;;;5089965;28;20186;-61
2023/09/25 08:50:13;;;;;;;;;;;21.30;49.70;;;;;;5090074;28;20292;-61
2023/09/25 08:52:41;;;;;;;;;;;21.40;49.80;;;;;;5094266;28;19928;-61
2023/09/25 08:55:08;;;;;;;;;;;21.40;49.90;;;;;;5104340;28;19981;-61
2023/09/25 08:57:35;;;;;;;;;;;21.40;49.90;;;;;;5095458;28;20022;-60
2023/09/25 09:00:11;;;;;;;;;;;21.40;49.90;;;;;;5089082;28;20039;-61
2023/09/25 09:02:38;;;;;;;;;;;21.40;49.90;;;;;;5093579;28;19924;-61
2023/09/25 09:05:06;;;;;;;;;;;21.40;49.90;;;;;;5108319;28;19939;-61
2023/09/25 09:07:34;;;;;;;;;;;21.40;49.90;;;;;;5106396;28;19935;-61
2023/09/25 09:10:01;;;;;;;;;;;21.40;49.90;;;;;;5093523;28;19924;-61
2023/09/25 09:12:28;;;;;;;;;;;21.40;50.00;;;;;;5092943;28;19940;-61
2023/09/25 09:14:55;;;;;;;;;;;21.40;50.00;;;;;;5094939;28;19924;-61
2023/09/25 09:17:21;;;;;;;;;;;21.40;50.00;;;;;;5089914;28;19951;-62
2023/09/25 09:19:52;;;;;;;;;;;21.40;50.00;;;;;;5110018;28;19928;-62
2023/09/25 09:22:20;;;;;;;;;;;21.50;50.10;;;;;;5092413;28;20156;-62
2023/09/25 09:24:48;;;;;;;;;;;21.50;50.10;;;;;;5091785;28;19969;-62
2023/09/25 09:27:20;;;;;;;;;;;21.50;50.20;;;;;;5090364;28;19924;-62
2023/09/25 09:29:46;;;;;;;;;;;21.50;50.20;;;;;;5090983;28;19928;-63
2023/09/25 09:32:14;;;;;;;;;;;21.50;50.20;;;;;;5099668;28;20383;-62
2023/09/25 09:34:41;;;;;;;;;;;21.50;50.20;;;;;;5091950;28;19969;-62
2023/09/25 09:37:08;;;;;;;;;;;21.50;50.20;;;;;;5090634;28;19934;-63
2023/09/25 09:39:35;;;;;;;;;;;21.50;50.20;;;;;;5107531;28;20619;-62
2023/09/25 09:42:05;;;;;;;;;;;21.50;50.20;;;;;;5094700;28;19924;-63
2023/09/25 09:44:32;;;;;;;;;;;21.50;50.20;;;;;;5087842;28;19924;-63
2023/09/25 09:46:59;;;;;;;;;;;21.50;50.20;;;;;;5108200;28;19934;-63
2023/09/25 09:49:26;;;;;;;;;;;21.60;50.30;;;;;;5090505;28;20755;-63
2023/09/25 09:51:55;;;;;;;;;;;21.60;50.30;;;;;;5093750;28;19931;-62
2023/09/25 09:54:23;;;;;;;;;;;21.60;50.30;;;;;;5090429;28;19953;-63
2023/09/25 09:56:50;;;;;;;;;;;21.60;50.30;;;;;;5091289;28;19962;-65
2023/09/25 09:59:18;;;;;;;;;;;21.60;50.30;;;;;;5092336;28;19955;-60
2023/09/25 10:01:45;;;;;;;;;;;21.60;50.30;;;;;;5090739;28;19924;-60
2023/09/25 10:04:12;;;;;;;;;;;21.60;50.30;;;;;;5080437;28;19928;-61
2023/09/25 10:06:43;;;;;;;;;;;21.60;50.30;;;;;;5079438;28;19943;-59
2023/09/25 10:09:11;;;;;;;;;;;21.60;50.30;;;;;;5091876;28;20008;-59
2023/09/25 10:11:37;;;;;;;;;;;21.60;50.30;;;;;;5090747;28;19973;-60
2023/09/25 10:14:04;;;;;;;;;;;21.60;50.30;;;;;;5091054;28;20362;-60
2023/09/25 10:16:35;;;;;;;;;;;21.60;50.30;;;;;;5106140;28;19966;-60
2023/09/25 10:19:02;;;;;;;;;;;21.70;50.30;;;;;;5088095;28;19927;-61
2023/09/25 10:21:29;;;;;;;;;;;21.70;50.20;;;;;;5089361;28;19931;-61
2023/09/25 10:23:56;;;;;;;;;;;21.70;50.10;;;;;;5090768;28;19924;-61
2023/09/25 10:26:24;;;;;;;;;;;21.70;50.10;;;;;;5105983;28;19928;-60
2023/09/25 10:28:57;;;;;;;;;;;21.70;50.10;;;;;;5087607;28;20272;-61
2023/09/25 10:31:25;;;;;;;;;;;21.70;50.00;;;;;;5086614;28;19960;-59
2023/09/25 10:33:57;;;;;;;;;;;21.70;50.00;;;;;;5083154;28;19978;-58
2023/09/25 10:36:35;;;;;;;;;;;21.70;50.00;;;;;;5090715;28;19928;-59
2023/09/25 10:39:02;;;;;;;;;;;21.70;50.00;;;;;;5088262;28;19928;-59
2023/09/25 10:41:28;;;;;;;;;;;21.70;50.00;;;;;;5102942;28;19932;-59
2023/09/25 10:43:57;;;;;;;;;;;21.70;49.90;;;;;;5091625;28;19924;-58
2023/09/25 10:46:23;;;;;;;;;;;21.70;49.90;;;;;;5106134;28;19924;-59
2023/09/25 10:48:50;;;;;;;;;;;21.70;49.90;;;;;;5109123;28;19938;-59
2023/09/25 10:51:20;;;;;;;;;;;21.70;49.90;;;;;;5092627;28;19931;-59
2023/09/25 10:53:47;;;;;;;;;;;21.70;49.90;;;;;;5088361;28;19989;-59
2023/09/25 10:56:14;;;;;;;;;;;21.70;49.90;;;;;;5088718;28;19973;-59
2023/09/25 10:58:41;;;;;;;;;;;21.70;49.90;;;;;;5088469;28;19924;-59
2023/09/25 11:01:07;;;;;;;;;;;21.70;49.90;;;;;;5097584;28;19932;-60
2023/09/25 11:03:36;;;;;;;;;;;21.70;49.90;;;;;;5101403;28;19920;-59
2023/09/25 11:06:03;;;;;;;;;;;21.70;49.90;;;;;;5089397;28;19931;-59
2023/09/25 11:08:34;;;;;;;;;;;21.70;49.90;;;;;;5088092;28;19927;-59
2023/09/25 11:11:01;;;;;;;;;;;21.70;49.90;;;;;;5098155;28;20018;-59
2023/09/25 11:13:28;;;;;;;;;;;21.70;49.90;;;;;;5082342;28;19924;-59
2023/09/25 11:15:54;;;;;;;;;;;21.70;49.80;;;;;;5087326;28;19928;-60
2023/09/25 11:18:21;;;;;;;;;;;21.70;49.80;;;;;;5086668;28;19919;-59
2023/09/25 11:20:48;;;;;;;;;;;21.70;49.70;;;;;;5088763;28;20038;-58
2023/09/25 11:23:15;;;;;;;;;;;21.70;49.50;;;;;;5090496;28;19924;-59
2023/09/25 11:25:43;;;;;;;;;;;21.70;49.10;;;;;;5085766;28;19976;-59
2023/09/25 11:28:12;;;;;;;;;;;21.70;48.70;;;;;;5094591;28;19939;-59
2023/09/25 11:30:40;;;;;;;;;;;21.70;48.50;;;;;;5088257;28;19931;-59
2023/09/25 11:33:07;;;;;;;;;;;21.70;48.40;;;;;;5092783;28;20068;-60
2023/09/25 11:35:37;;;;;;;;;;;21.70;48.20;;;;;;5085234;28;20006;-59
2023/09/25 11:38:12;;;;;;;;;;;21.70;48.00;;;;;;5084505;28;19923;-59
2023/09/25 11:40:39;;;;;;;;;;;21.60;48.10;;;;;;5084849;28;19923;-60
2023/09/25 11:43:07;;;;;;;;;;;21.60;48.30;;;;;;5105413;28;19930;-60
2023/09/25 11:45:34;;;;;;;;;;;21.60;48.50;;;;;;5085034;28;19963;-59
2023/09/25 11:48:01;;;;;;;;;;;21.60;48.60;;;;;;5111303;28;19934;-59
2023/09/25 11:50:29;;;;;;;;;;;21.60;48.70;;;;;;5096637;28;19920;-59
2023/09/25 11:52:55;;;;;;;;;;;21.60;48.70;;;;;;5087432;28;20266;-59
2023/09/25 11:55:23;;;;;;;;;;;21.60;48.80;;;;;;5106992;28;20015;-59
2023/09/25 11:57:49;;;;;;;;;;;21.60;48.90;;;;;;5105005;28;19923;-59
2023/09/25 12:00:18;;;;;;;;;;;21.60;48.90;;;;;;5084809;28;19924;-59
2023/09/25 12:02:46;;;;;;;;;;;21.60;48.90;;;;;;5089821;28;19930;-59
2023/09/25 12:05:12;;;;;;;;;;;21.60;49.00;;;;;;5089526;28;19924;-60
2023/09/25 12:07:40;;;;;;;;;;;21.60;49.00;;;;;;5091481;28;19924;-59
2023/09/25 12:10:07;;;;;;;;;;;21.60;49.00;;;;;;5082465;28;19995;-59
2023/09/25 12:12:34;;;;;;;;;;;21.70;49.00;;;;;;5089182;28;19977;-58
2023/09/25 12:15:03;;;;;;;;;;;21.60;49.00;;;;;;5092323;28;19951;-59
2023/09/25 12:17:31;;;;;;;;;;;21.70;49.10;;;;;;5096724;28;19927;-59
2023/09/25 12:19:58;;;;;;;;;;;21.70;49.20;;;;;;5086260;28;19924;-59
2023/09/25 12:22:25;;;;;;;;;;;21.60;49.00;;;;;;5109150;28;19923;-59
2023/09/25 12:24:52;;;;;;;;;;;21.70;49.00;;;;;;5084779;28;19974;-59
2023/09/25 12:27:19;;;;;;;;;;;21.70;49.00;;;;;;5080610;28;19977;-60
2023/09/25 12:29:46;;;;;;;;;;;21.70;49.00;;;;;;5092053;28;19981;-59
2023/09/25 12:32:13;;;;;;;;;;;21.70;48.90;;;;;;5088688;28;19930;-60
2023/09/25 12:34:41;;;;;;;;;;;21.70;48.80;;;;;;5091844;28;20344;-59
2023/09/25 12:37:08;;;;;;;;;;;21.60;48.90;;;;;;5087896;28;19928;-59
2023/09/25 12:39:35;;;;;;;;;;;21.70;49.00;;;;;;5107171;28;19924;-58
2023/09/25 12:42:02;;;;;;;;;;;21.70;49.00;;;;;;5081564;28;20159;-59
2023/09/25 12:44:29;;;;;;;;;;;21.70;48.90;;;;;;5093559;28;19923;-60
2023/09/25 12:46:55;;;;;;;;;;;21.60;48.90;;;;;;5096877;28;19927;-59
2023/09/25 12:49:22;;;;;;;;;;;21.70;48.90;;;;;;5092565;28;19984;-60
2023/09/25 12:51:51;;;;;;;;;;;21.70;48.90;;;;;;5088072;28;19920;-59
2023/09/25 12:54:18;;;;;;;;;;;21.70;48.90;;;;;;5092946;28;20011;-60
2023/09/25 12:56:44;;;;;;;;;;;21.60;48.90;;;;;;5110813;28;20340;-59
2023/09/25 12:59:11;;;;;;;;;;;21.70;48.90;;;;;;5089212;28;19924;-60
2023/09/25 13:01:38;;;;;;;;;;;21.70;48.90;;;;;;5094103;28;19931;-60
2023/09/25 13:04:05;;;;;;;;;;;21.70;48.90;;;;;;5091492;28;19924;-58
2023/09/25 13:06:32;;;;;;;;;;;21.70;48.80;;;;;;5101632;28;19965;-59
2023/09/25 13:09:00;;;;;;;;;;;21.70;48.90;;;;;;5091592;28;19923;-60
2023/09/25 13:11:28;;;;;;;;;;;21.60;48.80;;;;;;5090830;28;19938;-60
2023/09/25 13:13:56;;;;;;;;;;;21.70;48.80;;;;;;5090321;28;19924;-58
2023/09/25 13:16:23;;;;;;;;;;;21.70;48.70;;;;;;5095536;28;19924;-59
2023/09/25 13:18:51;;;;;;;;;;;21.70;48.80;;;;;;5091766;28;19935;-59
2023/09/25 13:21:17;;;;;;;;;;;21.70;48.80;;;;;;5109687;28;19923;-58
2023/09/25 13:23:44;;;;;;;;;;;21.70;48.90;;;;;;5092097;28;19924;-59
2023/09/25 13:26:12;;;;;;;;;;;21.70;48.80;;;;;;5091716;28;19958;-59
2023/09/25 13:28:39;;;;;;;;;;;21.70;48.90;;;;;;5088536;28;19919;-59
2023/09/25 13:31:06;;;;;;;;;;;21.70;48.90;;;;;;5090659;28;19927;-60
2023/09/25 13:33:33;;;;;;;;;;;21.70;49.00;;;;;;5105722;28;19924;-59
2023/09/25 13:36:00;;;;;;;;;;;21.70;48.90;;;;;;5098457;28;19924;-60
2023/09/25 13:38:27;;;;;;;;;;;21.70;48.90;;;;;;5094953;28;20373;-59
2023/09/25 13:40:54;;;;;;;;;;;21.70;48.80;;;;;;5092358;28;19927;-59
2023/09/25 13:43:22;;;;;;;;;;;21.70;48.90;;;;;;5091734;28;19924;-59
2023/09/25 13:45:49;;;;;;;;;;;21.70;48.80;;;;;;5095048;28;19919;-59
2023/09/25 13:48:16;;;;;;;;;;;21.70;48.80;;;;;;5101471;28;19942;-59
2023/09/25 13:50:43;;;;;;;;;;;21.70;48.80;;;;;;5108134;28;19930;-60
2023/09/25 13:53:10;;;;;;;;;;;21.70;48.80;;;;;;5090280;28;19963;-61
2023/09/25 13:55:37;;;;;;;;;;;21.70;48.80;;;;;;5090408;28;19934;-59
2023/09/25 13:58:04;;;;;;;;;;;21.70;48.90;;;;;;5092079;28;19931;-59
2023/09/25 14:00:34;;;;;;;;;;;21.70;48.90;;;;;;5088640;28;20052;-60
2023/09/25 14:03:01;;;;;;;;;;;21.70;48.90;;;;;;5096743;28;19930;-60
2023/09/25 14:05:28;;;;;;;;;;;21.70;48.90;;;;;;5079912;28;19974;-59
2023/09/25 14:07:55;;;;;;;;;;;21.70;48.90;;;;;;5088016;28;19930;-60
2023/09/25 14:10:21;;;;;;;;;;;21.70;48.90;;;;;;5088038;28;19928;-60
2023/09/25 14:12:48;;;;;;;;;;;21.70;48.90;;;;;;5091528;28;19924;-59
2023/09/25 14:15:15;;;;;;;;;;;21.70;48.90;;;;;;5108551;28;19924;-60
2023/09/25 14:17:44;;;;;;;;;;;21.70;48.80;;;;;;5094585;28;19932;-60